Time;durP1;ratioP1;P1;durP2;ratioP2;P2;SDS_P1;SDS_P2;PMS_P1;PMS_P2;Temp;Humidity;BMP_temperature;BMP_pressure;BME280_temperature;BME280_humidity;BME280_pressure;Samples;Min_cycle;Max_cycle;Signal;HPM_P1;HPM_P2
2023/03/03 00:00:50;;;;;;;7.57;5.30;;;4.40;99.90;;;;;;5093803;28;20039;-71
2023/03/03 00:03:19;;;;;;;8.70;5.68;;;4.60;99.90;;;;;;5094138;28;20096;-71
2023/03/03 00:05:45;;;;;;;7.95;5.47;;;4.70;99.90;;;;;;5091144;28;20124;-71
2023/03/03 00:08:11;;;;;;;8.15;5.28;;;4.50;99.90;;;;;;5093740;28;20040;-71
2023/03/03 00:10:37;;;;;;;7.72;5.22;;;4.70;99.90;;;;;;5062725;28;20043;-71
2023/03/03 00:13:03;;;;;;;;;;;4.10;99.90;;;;;;5094844;28;20044;-71
2023/03/03 00:15:30;;;;;;;7.65;5.30;;;4.20;99.90;;;;;;5077740;28;19942;-71
2023/03/03 00:17:56;;;;;;;7.93;5.13;;;4.40;99.90;;;;;;5077179;28;20041;-71
2023/03/03 00:20:35;;;;;;;6.85;4.70;;;4.00;99.90;;;;;;5092342;28;20142;-71
2023/03/03 00:23:29;;;;;;;6.10;4.03;;;4.20;99.90;;;;;;5077446;28;20040;-71
2023/03/03 00:25:56;;;;;;;5.22;3.75;;;4.10;99.90;;;;;;5088732;28;20380;-71
2023/03/03 00:28:40;;;;;;;;;;;4.10;99.90;;;;;;5093154;28;20046;-71
2023/03/03 00:31:18;;;;;;;5.70;3.85;;;4.20;99.90;;;;;;5093030;28;19924;-71
2023/03/03 00:33:54;;;;;;;4.78;3.42;;;4.10;99.90;;;;;;5075520;28;20055;-71
2023/03/03 00:36:36;;;;;;;4.88;3.45;;;4.10;99.90;;;;;;5089324;28;20036;-71
2023/03/03 00:39:16;;;;;;;4.35;3.20;;;3.70;99.90;;;;;;5092194;28;20390;-71
2023/03/03 00:41:42;;;;;;;4.40;3.30;;;4.00;99.90;;;;;;5078853;27;20390;-71
2023/03/03 00:44:24;;;;;;;5.65;3.90;;;3.90;99.90;;;;;;5092274;28;20047;-70
2023/03/03 00:46:52;;;;;;;6.10;4.70;;;3.90;99.90;;;;;;5070955;28;20047;-71
2023/03/03 00:49:25;;;;;;;6.07;4.10;;;3.90;99.90;;;;;;5086560;28;20388;-71
2023/03/03 00:51:52;;;;;;;4.38;3.30;;;3.70;99.90;;;;;;5095882;28;20502;-71
2023/03/03 00:54:18;;;;;;;4.93;3.42;;;3.30;99.90;;;;;;5063200;28;20387;-71
2023/03/03 00:56:44;;;;;;;6.18;4.43;;;3.80;99.90;;;;;;5074581;28;20043;-71
2023/03/03 00:59:09;;;;;;;4.65;3.60;;;3.20;99.90;;;;;;5076568;28;20109;-71
2023/03/03 01:01:35;;;;;;;6.47;4.65;;;3.80;99.90;;;;;;5112806;28;20510;-71
2023/03/03 01:04:01;;;;;;;5.28;4.07;;;3.20;99.90;;;;;;5057657;28;20395;-72
2023/03/03 01:06:27;;;;;;;5.07;3.92;;;3.20;99.90;;;;;;5102417;27;20127;-70
2023/03/03 01:08:56;;;;;;;3.97;3.08;;;3.50;99.90;;;;;;5114766;27;20039;-70
2023/03/03 01:11:24;;;;;;;4.05;3.22;;;3.00;99.90;;;;;;5093446;28;20481;-72
2023/03/03 01:13:51;;;;;;;3.63;2.90;;;3.00;99.90;;;;;;5093180;28;20146;-71
2023/03/03 01:16:18;;;;;;;3.90;3.03;;;3.30;99.90;;;;;;5085459;28;20043;-70
2023/03/03 01:18:44;;;;;;;4.30;3.40;;;3.00;99.90;;;;;;5060176;28;20122;-70
2023/03/03 01:21:10;;;;;;;3.50;2.90;;;2.80;99.90;;;;;;5076795;28;20048;-70
2023/03/03 01:23:36;;;;;;;2.88;2.42;;;2.90;99.90;;;;;;5093327;28;20051;-71
2023/03/03 01:26:04;;;;;;;3.35;2.85;;;3.00;99.90;;;;;;5078030;28;20055;-70
2023/03/03 01:28:29;;;;;;;3.72;2.88;;;2.70;99.90;;;;;;5073730;28;20043;-71
2023/03/03 01:31:03;;;;;;;4.60;3.43;;;2.60;99.90;;;;;;5087620;28;20043;-71
2023/03/03 01:33:30;;;;;;;3.50;2.85;;;3.20;99.90;;;;;;5076537;28;20297;-72
2023/03/03 01:35:56;;;;;;;3.58;2.97;;;3.00;99.90;;;;;;5062934;28;20178;-72
2023/03/03 01:38:22;;;;;;;2.92;2.40;;;2.90;99.90;;;;;;5075550;28;20189;-72
2023/03/03 01:40:58;;;;;;;2.20;1.95;;;2.70;99.90;;;;;;5093076;28;20054;-72
2023/03/03 01:43:32;;;;;;;2.72;2.22;;;2.70;99.90;;;;;;5078798;28;20424;-72
2023/03/03 01:45:57;;;;;;;2.70;2.13;;;2.80;99.90;;;;;;5091331;28;20101;-72
2023/03/03 01:48:37;;;;;;;2.10;1.80;;;2.20;99.90;;;;;;5092598;27;20486;-72
2023/03/03 01:51:18;;;;;;;2.42;1.90;;;2.90;99.90;;;;;;5074811;28;20136;-72
2023/03/03 01:53:49;;;;;;;1.95;1.50;;;2.10;99.90;;;;;;5104746;28;20129;-72
2023/03/03 01:56:15;;;;;;;1.58;1.30;;;2.80;99.90;;;;;;5092053;28;20038;-72
2023/03/03 01:58:45;;;;;;;1.95;1.50;;;2.20;99.90;;;;;;5093428;27;20039;-72
2023/03/03 02:01:16;;;;;;;1.90;1.50;;;2.20;99.90;;;;;;5088456;28;20067;-72
2023/03/03 02:03:42;;;;;;;1.50;1.20;;;2.70;99.90;;;;;;5091593;28;20047;-72
2023/03/03 02:06:15;;;;;;;1.75;1.40;;;2.80;99.90;;;;;;5085321;28;20043;-72
2023/03/03 02:08:55;;;;;;;2.22;1.85;;;2.70;99.90;;;;;;5091666;28;20090;-72
2023/03/03 02:11:22;;;;;;;2.58;2.15;;;2.80;99.90;;;;;;5056369;28;20501;-72
2023/03/03 02:13:47;;;;;;;3.33;2.72;;;2.80;99.90;;;;;;5087036;28;20505;-72
2023/03/03 02:16:13;;;;;;;3.97;3.25;;;2.20;99.90;;;;;;5066544;28;20044;-72
2023/03/03 02:18:39;;;;;;;4.40;3.65;;;2.70;99.90;;;;;;5081722;28;20442;-72
2023/03/03 02:21:18;;;;;;;4.53;3.65;;;2.20;99.90;;;;;;5089127;28;20075;-72
2023/03/03 02:24:02;;;;;;;4.20;3.28;;;1.80;99.90;;;;;;5073826;28;20042;-72
2023/03/03 02:26:30;;;;;;;4.05;2.83;;;2.10;99.90;;;;;;5064680;28;20048;-72
2023/03/03 02:28:56;;;;;;;2.85;2.35;;;2.20;99.90;;;;;;5090770;28;20059;-72
2023/03/03 02:31:25;;;;;;;2.50;2.20;;;1.90;99.90;;;;;;5080472;28;20097;-72
2023/03/03 02:33:52;;;;;;;3.28;2.70;;;2.10;99.90;;;;;;5072492;28;20047;-72
2023/03/03 02:36:21;;;;;;;3.05;2.55;;;2.00;99.90;;;;;;5082048;28;20032;-72
2023/03/03 02:39:05;;;;;;;3.03;2.45;;;1.70;99.90;;;;;;5072650;28;20048;-72
2023/03/03 02:42:01;;;;;;;2.88;2.40;;;1.20;99.90;;;;;;5090175;28;20509;-72
2023/03/03 02:44:30;;;;;;;2.35;1.90;;;1.90;99.90;;;;;;5091659;28;20369;-72
2023/03/03 02:46:56;;;;;;;2.00;1.67;;;1.20;99.90;;;;;;5067613;28;20498;-72
2023/03/03 02:49:23;;;;;;;;;;;1.60;99.90;;;;;;5092821;28;20046;-72
2023/03/03 02:51:49;;;;;;;2.42;1.85;;;1.20;99.90;;;;;;5095121;28;19972;-72
2023/03/03 02:54:17;;;;;;;2.00;1.60;;;1.70;99.90;;;;;;5092842;28;20391;-72
2023/03/03 02:56:43;;;;;;;2.60;2.05;;;1.00;99.90;;;;;;5089349;28;20042;-72
2023/03/03 02:59:09;;;;;;;2.33;2.00;;;1.00;99.90;;;;;;5091866;28;20039;-72
2023/03/03 03:01:38;;;;;;;3.00;2.40;;;1.10;99.90;;;;;;5099233;28;20044;-72
2023/03/03 03:04:09;;;;;;;2.13;1.80;;;1.30;99.90;;;;;;5090435;28;20073;-72
2023/03/03 03:06:34;;;;;;;2.28;1.85;;;1.40;99.90;;;;;;5087895;28;20073;-72
2023/03/03 03:09:00;;;;;;;2.40;1.83;;;1.60;99.90;;;;;;5091724;28;20059;-72
2023/03/03 03:11:26;;;;;;;2.28;1.80;;;1.70;99.90;;;;;;5054443;28;20048;-72
2023/03/03 03:13:52;;;;;;;1.50;1.30;;;1.60;99.90;;;;;;5060743;28;20387;-72
2023/03/03 03:16:18;;;;;;;1.95;1.60;;;0.90;99.90;;;;;;5089728;28;20108;-72
2023/03/03 03:18:44;;;;;;;1.83;1.58;;;1.60;99.90;;;;;;5080677;28;20145;-72
2023/03/03 03:21:11;;;;;;;2.20;1.70;;;1.20;99.90;;;;;;5091918;28;20048;-72
2023/03/03 03:23:38;;;;;;;2.78;1.98;;;1.50;99.90;;;;;;5084714;28;20502;-72
2023/03/03 03:26:04;;;;;;;;;;;1.40;99.90;;;;;;5096073;28;20039;-72
2023/03/03 03:28:30;;;;;;;2.50;1.63;;;0.80;99.90;;;;;;5091623;28;19920;-72
2023/03/03 03:30:56;;;;;;;1.48;1.25;;;0.70;99.90;;;;;;5094899;28;20402;-72
2023/03/03 03:33:22;;;;;;;2.03;1.58;;;1.30;99.90;;;;;;5080328;28;20040;-71
2023/03/03 03:35:49;;;;;;;2.10;1.58;;;0.80;99.90;;;;;;5096705;28;20308;-72
2023/03/03 03:38:14;;;;;;;;;;;0.80;99.90;;;;;;5084579;28;20047;-72
2023/03/03 03:40:40;;;;;;;2.60;1.88;;;0.80;99.90;;;;;;5072205;28;19922;-71
2023/03/03 03:43:06;;;;;;;1.98;1.73;;;1.20;99.90;;;;;;5088441;28;20044;-72
2023/03/03 03:45:32;;;;;;;2.17;1.60;;;1.20;99.90;;;;;;5094674;28;20118;-71
2023/03/03 03:47:58;;;;;;;2.30;1.80;;;0.70;99.90;;;;;;5094712;28;20122;-72
2023/03/03 03:50:24;;;;;;;1.67;1.33;;;0.50;99.90;;;;;;5094173;28;20031;-72
2023/03/03 03:52:49;;;;;;;1.67;1.20;;;0.70;99.90;;;;;;5087125;28;20800;-71
2023/03/03 03:55:15;;;;;;;1.77;1.30;;;0.90;99.90;;;;;;5092485;28;20040;-72
2023/03/03 03:57:41;;;;;;;2.60;1.90;;;0.40;99.90;;;;;;5095068;28;20039;-72
2023/03/03 04:00:09;;;;;;;2.55;2.13;;;0.80;99.90;;;;;;5090249;28;20516;-72
2023/03/03 04:02:35;;;;;;;2.42;1.90;;;0.40;99.90;;;;;;5080816;28;20059;-72
2023/03/03 04:05:01;;;;;;;2.17;1.58;;;0.20;99.90;;;;;;5075328;28;20100;-72
2023/03/03 04:07:27;;;;;;;2.10;1.60;;;0.20;99.90;;;;;;5043812;28;20048;-71
2023/03/03 04:09:52;;;;;;;2.30;1.70;;;0.20;99.90;;;;;;5079682;28;20048;-72
2023/03/03 04:12:18;;;;;;;2.03;1.73;;;0.20;99.90;;;;;;5103875;28;20052;-72
2023/03/03 04:14:44;;;;;;;1.83;1.40;;;0.70;99.90;;;;;;5095283;28;20103;-72
2023/03/03 04:17:19;;;;;;;1.92;1.50;;;0.30;99.90;;;;;;5089826;28;20138;-72
2023/03/03 04:19:45;;;;;;;1.70;1.35;;;0.30;99.90;;;;;;5095669;28;20071;-72
2023/03/03 04:22:12;;;;;;;1.90;1.33;;;0.40;99.90;;;;;;5094507;28;20607;-72
2023/03/03 04:24:39;;;;;;;2.55;1.50;;;0.50;99.90;;;;;;5095095;28;20039;-72
2023/03/03 04:27:05;;;;;;;2.30;1.70;;;0.10;99.90;;;;;;5095043;28;20043;-71
2023/03/03 04:29:31;;;;;;;1.90;1.40;;;0.10;99.90;;;;;;5094070;28;20457;-71
2023/03/03 04:31:57;;;;;;;1.98;1.27;;;0.40;99.90;;;;;;5087061;28;20059;-71
2023/03/03 04:34:22;;;;;;;2.00;1.42;;;0.40;99.90;;;;;;5075059;28;20181;-71
2023/03/03 04:36:48;;;;;;;1.95;1.38;;;0.70;99.90;;;;;;5083814;28;20040;-71
2023/03/03 04:39:14;;;;;;;1.55;1.25;;;-0.10;99.90;;;;;;5093985;28;20540;-71
2023/03/03 04:41:39;;;;;;;1.95;1.40;;;0.60;99.90;;;;;;5093061;28;20043;-71
2023/03/03 04:44:05;;;;;;;1.60;1.27;;;-0.10;99.90;;;;;;5094360;28;20043;-71
2023/03/03 04:46:31;;;;;;;1.50;1.10;;;-0.10;99.90;;;;;;5094485;28;20336;-71
2023/03/03 04:48:56;;;;;;;1.63;1.25;;;-0.20;99.90;;;;;;5071043;28;20067;-71
2023/03/03 04:51:22;;;;;;;1.58;1.15;;;0.50;99.90;;;;;;5085780;28;20036;-71
2023/03/03 04:53:48;;;;;;;1.35;0.98;;;0.50;99.90;;;;;;5093917;28;20047;-71
2023/03/03 04:56:14;;;;;;;1.23;0.95;;;0.40;99.90;;;;;;5060082;28;20524;-72
2023/03/03 04:58:40;;;;;;;1.58;1.10;;;0.60;99.90;;;;;;5093590;28;20109;-71
2023/03/03 05:01:06;;;;;;;1.35;1.00;;;0.00;99.90;;;;;;5073490;28;20083;-71
2023/03/03 05:03:32;;;;;;;1.30;0.90;;;0.50;99.90;;;;;;5070919;28;20447;-71
2023/03/03 05:05:57;;;;;;;1.30;0.82;;;0.00;99.90;;;;;;5083841;28;20058;-71
2023/03/03 05:08:23;;;;;;;2.03;1.10;;;0.50;99.90;;;;;;5087140;28;20910;-71
2023/03/03 05:10:53;;;;;;;1.30;1.05;;;0.40;99.90;;;;;;5073028;28;20310;-71
2023/03/03 05:13:19;;;;;;;1.10;0.90;;;0.10;99.90;;;;;;5086414;28;20115;-71
2023/03/03 05:15:54;;;;;;;1.60;1.10;;;0.60;99.90;;;;;;5090598;28;20190;-72
2023/03/03 05:18:21;;;;;;;1.23;0.93;;;0.00;99.90;;;;;;5068426;28;20793;-71
2023/03/03 05:20:48;;;;;;;1.48;1.02;;;0.00;99.90;;;;;;5070092;28;20075;-71
2023/03/03 05:23:14;;;;;;;1.15;0.88;;;0.80;99.90;;;;;;5087334;28;20047;-72
2023/03/03 05:25:41;;;;;;;1.35;1.00;;;0.80;99.90;;;;;;5089691;28;20046;-71
2023/03/03 05:28:08;;;;;;;1.30;1.00;;;0.20;99.90;;;;;;5058610;28;20052;-71
2023/03/03 05:30:35;;;;;;;0.88;0.75;;;-0.10;99.90;;;;;;5057440;28;20048;-71
2023/03/03 05:33:01;;;;;;;0.90;0.80;;;-0.10;99.90;;;;;;5090017;28;20367;-72
2023/03/03 05:35:27;;;;;;;1.27;0.93;;;0.60;99.90;;;;;;5088966;28;20039;-72
2023/03/03 05:37:53;;;;;;;1.30;0.90;;;0.60;99.90;;;;;;5075368;28;20131;-72
2023/03/03 05:40:19;;;;;;;;;;;0.20;99.90;;;;;;5070732;28;20433;-72
2023/03/03 05:42:45;;;;;;;1.45;1.00;;;-0.10;99.90;;;;;;5093580;28;19920;-72
2023/03/03 05:45:11;;;;;;;1.00;0.75;;;0.30;99.90;;;;;;5072991;28;20048;-72
2023/03/03 05:47:37;;;;;;;1.33;0.90;;;-0.10;99.90;;;;;;5069619;28;20043;-72
2023/03/03 05:50:03;;;;;;;1.08;0.82;;;0.60;99.90;;;;;;5087587;28;20510;-72
2023/03/03 05:52:29;;;;;;;1.67;1.20;;;-0.10;99.90;;;;;;5082025;28;20410;-72
2023/03/03 05:54:55;;;;;;;1.40;1.17;;;0.20;99.90;;;;;;5082843;28;20040;-72
2023/03/03 05:57:21;;;;;;;1.65;1.20;;;0.20;99.90;;;;;;5087961;28;20036;-72
2023/03/03 05:59:47;;;;;;;1.85;1.15;;;0.00;99.90;;;;;;5090175;28;20072;-72
2023/03/03 06:02:13;;;;;;;1.50;1.10;;;0.50;99.90;;;;;;5081665;28;20474;-72
2023/03/03 06:04:39;;;;;;;1.73;1.02;;;-0.20;99.90;;;;;;5085505;28;20055;-72
2023/03/03 06:07:04;;;;;;;1.52;1.00;;;-0.20;99.90;;;;;;5086959;28;20036;-72
2023/03/03 06:09:31;;;;;;;1.23;0.90;;;-0.20;99.90;;;;;;5036505;28;20510;-72
2023/03/03 06:11:57;;;;;;;1.33;1.10;;;-0.20;99.90;;;;;;5064180;28;20044;-72
2023/03/03 06:14:23;;;;;;;1.35;1.00;;;-0.20;99.90;;;;;;5082749;28;20586;-72
2023/03/03 06:16:49;;;;;;;1.65;1.20;;;-0.20;99.90;;;;;;5089181;28;20062;-74
2023/03/03 06:19:15;;;;;;;1.25;1.02;;;-0.20;99.90;;;;;;5079741;28;20036;-72
2023/03/03 06:21:40;;;;;;;1.85;1.30;;;-0.20;99.90;;;;;;5085804;28;20188;-70
2023/03/03 06:24:07;;;;;;;1.80;1.20;;;-0.10;99.90;;;;;;5088175;28;20456;-71
2023/03/03 06:26:32;;;;;;;1.65;1.08;;;0.50;99.90;;;;;;5072307;28;20052;-71
2023/03/03 06:28:58;;;;;;;1.30;1.00;;;-0.10;99.90;;;;;;5087599;28;20474;-71
2023/03/03 06:31:25;;;;;;;1.08;0.90;;;0.00;99.90;;;;;;5087169;28;20045;-71
2023/03/03 06:33:50;;;;;;;1.77;1.20;;;0.50;99.90;;;;;;5074090;28;20119;-71
2023/03/03 06:36:17;;;;;;;1.20;0.88;;;0.50;99.90;;;;;;5068555;28;20616;-71
2023/03/03 06:38:43;;;;;;;1.02;0.85;;;-0.20;99.90;;;;;;5081129;28;20063;-71
2023/03/03 06:41:09;;;;;;;0.90;0.70;;;-0.10;99.90;;;;;;5061771;28;20040;-72
2023/03/03 06:43:36;;;;;;;1.05;0.77;;;0.10;99.90;;;;;;5091085;28;20135;-71
2023/03/03 06:46:05;;;;;;;1.40;0.85;;;0.70;99.90;;;;;;5084129;28;20058;-72
2023/03/03 06:48:32;;;;;;;1.80;1.00;;;0.00;99.90;;;;;;5084891;28;20068;-71
2023/03/03 06:51:00;;;;;;;1.33;1.10;;;0.10;99.90;;;;;;5082329;28;20407;-71
2023/03/03 06:53:26;;;;;;;1.70;1.38;;;0.30;99.90;;;;;;5081568;28;20032;-71
2023/03/03 06:55:55;;;;;;;1.95;1.45;;;0.30;99.90;;;;;;5077123;28;20040;-71
2023/03/03 06:58:21;;;;;;;2.08;1.38;;;1.10;99.90;;;;;;5086592;28;20039;-71
2023/03/03 07:00:58;;;;;;;1.65;1.20;;;0.80;99.90;;;;;;5089070;28;20039;-70
2023/03/03 07:03:28;;;;;;;2.42;1.48;;;0.80;99.90;;;;;;5075957;28;20105;-71
2023/03/03 07:05:54;;;;;;;1.73;1.25;;;0.60;99.90;;;;;;5075860;28;20400;-71
2023/03/03 07:08:22;;;;;;;1.85;1.30;;;0.70;99.90;;;;;;5042606;28;20051;-71
2023/03/03 07:10:49;;;;;;;1.70;1.27;;;0.60;99.90;;;;;;5074948;28;20049;-71
2023/03/03 07:13:20;;;;;;;1.77;1.27;;;0.90;99.90;;;;;;5075606;28;20044;-71
2023/03/03 07:15:51;;;;;;;1.58;1.23;;;1.20;99.90;;;;;;5058427;28;20124;-71
2023/03/03 07:18:39;;;;;;;2.05;1.60;;;0.60;99.90;;;;;;5075602;28;20052;-71
2023/03/03 07:21:19;;;;;;;1.85;1.30;;;0.90;99.90;;;;;;5075199;28;20056;-71
2023/03/03 07:23:49;;;;;;;2.03;1.35;;;0.90;99.90;;;;;;5073601;28;20048;-71
2023/03/03 07:26:29;;;;;;;1.95;1.30;;;1.70;99.90;;;;;;5094136;28;20050;-71
2023/03/03 07:28:59;;;;;;;2.47;1.70;;;2.10;99.90;;;;;;5078283;28;20050;-71
2023/03/03 07:31:38;;;;;;;2.53;1.90;;;2.00;99.90;;;;;;5078065;28;20126;-71
2023/03/03 07:34:16;;;;;;;3.80;2.80;;;1.90;99.90;;;;;;5095707;28;20040;-71
2023/03/03 07:36:42;;;;;;;4.50;3.38;;;1.90;99.90;;;;;;5096345;28;20105;-72
2023/03/03 07:39:20;;;;;;;5.20;3.50;;;2.60;99.90;;;;;;5095797;28;20043;-71
2023/03/03 07:41:46;;;;;;;4.63;3.00;;;2.30;99.90;;;;;;5078619;28;20058;-72
2023/03/03 07:44:30;;;;;;;3.90;2.80;;;2.10;99.90;;;;;;5095535;28;20044;-71
2023/03/03 07:46:56;;;;;;;4.03;2.97;;;2.80;99.90;;;;;;5078543;28;20050;-72
2023/03/03 07:49:36;;;;;;;4.55;3.15;;;2.30;99.90;;;;;;5062000;28;20131;-71
2023/03/03 07:52:38;;;;;;;3.70;2.53;;;2.70;99.90;;;;;;5077891;28;20044;-72
2023/03/03 07:55:25;;;;;;;3.80;2.72;;;2.80;99.90;;;;;;5054103;28;20051;-72
2023/03/03 07:57:53;;;;;;;6.00;2.40;;;2.40;99.90;;;;;;5102263;28;20036;-72
2023/03/03 08:00:19;;;;;;;5.43;2.60;;;2.60;99.90;;;;;;5065910;28;20048;-72
2023/03/03 08:02:56;;;;;;;3.20;2.27;;;2.60;99.90;;;;;;5089156;28;20561;-73
2023/03/03 08:05:25;;;;;;;3.33;2.50;;;2.80;99.90;;;;;;5085955;28;20032;-72
2023/03/03 08:07:51;;;;;;;2.70;1.95;;;2.80;99.90;;;;;;5067162;28;20044;-72
2023/03/03 08:10:40;;;;;;;2.70;2.05;;;3.50;99.90;;;;;;5085677;28;20043;-72
2023/03/03 08:13:19;;;;;;;3.35;2.10;;;3.50;99.90;;;;;;5071166;28;20134;-72
2023/03/03 08:16:00;;;;;;;3.20;2.42;;;3.50;99.90;;;;;;5084155;28;20101;-72
2023/03/03 08:18:39;;;;;;;2.65;1.90;;;3.60;99.90;;;;;;5089934;28;20051;-72
2023/03/03 08:21:16;;;;;;;3.30;2.50;;;3.00;99.90;;;;;;5088682;28;20050;-72
2023/03/03 08:23:41;;;;;;;;;;;3.50;99.90;;;;;;5077638;28;20040;-72
2023/03/03 08:26:08;;;;;;;3.25;2.47;;;3.10;99.90;;;;;;5082264;28;19980;-72
2023/03/03 08:28:34;;;;;;;3.55;2.83;;;3.80;99.90;;;;;;5082969;28;20036;-72
2023/03/03 08:31:00;;;;;;;3.47;2.67;;;3.20;99.90;;;;;;5066134;28;20086;-72
2023/03/03 08:33:26;;;;;;;4.38;2.53;;;3.90;99.90;;;;;;5085241;28;20048;-73
2023/03/03 08:35:51;;;;;;;3.38;2.70;;;3.60;99.90;;;;;;5061344;28;20412;-72
2023/03/03 08:38:20;;;;;;;3.90;2.88;;;4.00;99.90;;;;;;5066891;28;20460;-72
2023/03/03 08:40:47;;;;;;;3.53;2.95;;;3.70;99.90;;;;;;5086931;28;20174;-72
2023/03/03 08:43:16;;;;;;;3.58;3.00;;;3.40;99.90;;;;;;5086088;28;20119;-72
2023/03/03 08:45:44;;;;;;;5.07;3.10;;;3.70;99.90;;;;;;5078563;28;20044;-72
2023/03/03 08:48:09;;;;;;;4.25;2.90;;;4.10;99.90;;;;;;5072086;28;20131;-72
2023/03/03 08:50:35;;;;;;;3.22;2.63;;;4.00;99.90;;;;;;5089216;28;20119;-72
2023/03/03 08:53:01;;;;;;;5.25;3.95;;;4.40;99.90;;;;;;5076400;28;20114;-73
2023/03/03 08:55:28;;;;;;;5.20;3.83;;;4.00;99.90;;;;;;5088153;28;20123;-72
2023/03/03 08:57:53;;;;;;;5.47;4.00;;;4.10;99.90;;;;;;5067807;28;20040;-72
2023/03/03 09:00:20;;;;;;;7.23;4.23;;;4.60;99.90;;;;;;5085939;28;20044;-72
2023/03/03 09:02:46;;;;;;;5.65;3.80;;;4.10;99.90;;;;;;5080289;28;20306;-72
2023/03/03 09:05:13;;;;;;;4.78;3.38;;;4.70;99.90;;;;;;5082136;28;20066;-72
2023/03/03 09:07:41;;;;;;;5.25;3.45;;;4.60;99.90;;;;;;5079926;28;20045;-72
2023/03/03 09:10:07;;;;;;;4.75;3.70;;;4.40;99.90;;;;;;5082250;28;20151;-72
2023/03/03 09:12:35;;;;;;;;;;;4.90;99.90;;;;;;5051857;28;20035;-72
2023/03/03 09:15:22;;;;;;;4.15;2.75;;;5.00;99.90;;;;;;5078531;28;20018;-76
2023/03/03 09:17:48;;;;;;;3.20;2.47;;;4.60;99.90;;;;;;5088818;28;20497;-76
2023/03/03 09:20:30;;;;;;;3.50;2.75;;;4.80;99.90;;;;;;5084888;28;20039;-76
2023/03/03 09:22:58;;;;;;;4.45;3.30;;;5.40;99.90;;;;;;5076940;28;20052;-76
2023/03/03 09:25:29;;;;;;;4.28;2.92;;;5.10;99.90;;;;;;5085116;28;20123;-76
2023/03/03 09:27:55;;;;;;;3.70;2.90;;;5.10;99.90;;;;;;5080316;28;20050;-76
2023/03/03 09:30:41;;;;;;;5.33;2.97;;;5.20;99.90;;;;;;5068992;28;20045;-76
2023/03/03 09:33:24;;;;;;;4.13;3.10;;;5.80;99.90;;;;;;5085962;28;20292;-75
2023/03/03 09:36:14;;;;;;;4.82;3.85;;;5.50;99.90;;;;;;5079298;28;20391;-76
2023/03/03 09:38:44;;;;;;;6.35;3.58;;;5.80;99.90;;;;;;5077893;28;20036;-76
2023/03/03 09:41:28;;;;;;;6.28;3.50;;;5.90;99.90;;;;;;5084622;28;20047;-76
2023/03/03 09:43:54;;;;;;;4.57;3.15;;;6.00;99.90;;;;;;5083392;28;20055;-76
2023/03/03 09:46:38;;;;;;;4.23;3.20;;;6.20;99.90;;;;;;5083570;28;20047;-76
2023/03/03 09:49:19;;;;;;;4.68;3.50;;;5.90;99.90;;;;;;5078307;28;20294;-76
2023/03/03 09:52:22;;;;;;;5.47;3.17;;;6.30;99.90;;;;;;5075886;28;20461;-76
2023/03/03 09:55:11;;;;;;;4.53;3.20;;;6.10;99.90;;;;;;5089745;28;20044;-75
2023/03/03 09:57:59;;;;;;;4.60;3.28;;;6.20;99.90;;;;;;5083137;28;20044;-76
2023/03/03 10:00:43;;;;;;;;;;;6.60;99.90;;;;;;5084604;28;20039;-76
2023/03/03 10:03:24;;;;;;;4.05;2.95;;;6.40;99.90;;;;;;5079519;28;20450;-76
2023/03/03 10:06:10;;;;;;;3.72;2.70;;;6.40;99.90;;;;;;5089516;28;20055;-76
2023/03/03 10:08:50;;;;;;;3.72;3.20;;;6.50;99.90;;;;;;5087147;28;20483;-76
2023/03/03 10:11:36;;;;;;;3.03;2.28;;;6.50;99.90;;;;;;5083148;28;20044;-76
2023/03/03 10:14:01;;;;;;;3.83;2.75;;;6.70;99.90;;;;;;5074298;28;20047;-76
2023/03/03 10:16:35;;;;;;;2.27;2.03;;;7.00;99.90;;;;;;5071028;28;20040;-76
2023/03/03 10:19:09;;;;;;;4.15;2.92;;;7.10;99.90;;;;;;5078936;28;20413;-75
2023/03/03 10:21:43;;;;;;;2.95;2.30;;;7.20;99.90;;;;;;5084289;28;20066;-75
2023/03/03 10:24:30;;;;;;;3.03;2.25;;;7.30;99.90;;;;;;5070720;28;20446;-76
2023/03/03 10:26:59;;;;;;;2.58;1.95;;;7.50;99.90;;;;;;5084721;28;20044;-75
2023/03/03 10:29:53;;;;;;;2.63;1.98;;;7.70;99.90;;;;;;5087341;28;20044;-75
2023/03/03 10:32:51;;;;;;;2.83;2.00;;;7.80;99.90;;;;;;5083551;28;20048;-76
2023/03/03 10:35:51;;;;;;;2.97;2.00;;;7.90;99.90;;;;;;5087832;28;20050;-76
2023/03/03 10:38:35;;;;;;;3.90;2.00;;;8.00;99.90;;;;;;5068862;28;20056;-75
2023/03/03 10:41:38;;;;;;;3.05;1.85;;;8.10;99.90;;;;;;5088456;28;20043;-76
2023/03/03 10:44:10;;;;;;;5.40;2.05;;;8.10;99.90;;;;;;5084251;28;20586;-76
2023/03/03 10:46:54;;;;;;;2.88;1.70;;;8.20;99.90;;;;;;5082582;28;20047;-76
2023/03/03 10:49:30;;;;;;;3.33;1.60;;;8.10;99.90;;;;;;5087319;28;20743;-76
2023/03/03 10:52:08;;;;;;;4.32;1.40;;;8.10;99.90;;;;;;5082540;28;20047;-75
2023/03/03 10:54:36;;;;;;;5.18;1.70;;;8.10;99.90;;;;;;5079748;28;20536;-76
2023/03/03 10:57:25;;;;;;;2.78;0.95;;;8.00;99.90;;;;;;5082148;28;20521;-76
2023/03/03 11:00:14;;;;;;;2.60;0.77;;;7.70;99.90;;;;;;5078286;28;20440;-75
2023/03/03 11:03:15;;;;;;;3.25;0.60;;;7.60;99.90;;;;;;5083427;28;20124;-75
2023/03/03 11:05:43;;;;;;;1.33;0.45;;;7.30;99.90;;;;;;5082609;28;20051;-76
2023/03/03 11:08:21;;;;;;;1.70;0.60;;;7.30;99.90;;;;;;5082083;28;20055;-75
2023/03/03 11:11:06;;;;;;;1.92;0.60;;;7.30;99.90;;;;;;5080431;28;20051;-76
2023/03/03 11:14:00;;;;;;;1.70;0.60;;;7.50;99.90;;;;;;5086645;28;20055;-76
2023/03/03 11:16:59;;;;;;;1.42;0.40;;;7.50;99.90;;;;;;5065999;28;20032;-76
2023/03/03 11:19:37;;;;;;;3.28;0.57;;;7.60;99.90;;;;;;5069630;28;20502;-75
2023/03/03 11:22:12;;;;;;;3.45;0.70;;;7.60;99.90;;;;;;5083456;28;20048;-78
2023/03/03 11:25:02;;;;;;;2.58;0.50;;;7.60;99.90;;;;;;5084002;28;20122;-76
2023/03/03 11:27:38;;;;;;;2.47;0.68;;;7.50;99.90;;;;;;5082946;28;20058;-76
2023/03/03 11:30:28;;;;;;;1.20;0.50;;;7.50;99.90;;;;;;5085149;28;20173;-76
2023/03/03 11:33:03;;;;;;;2.47;0.60;;;7.60;99.90;;;;;;5082472;28;20062;-76
2023/03/03 11:35:29;;;;;;;2.13;0.60;;;7.60;99.90;;;;;;5105078;28;20040;-76
2023/03/03 11:38:16;;;;;;;3.30;0.70;;;7.50;99.90;;;;;;5080817;28;20055;-76
2023/03/03 11:41:07;;;;;;;3.22;0.90;;;7.50;99.90;;;;;;5084212;28;20413;-76
2023/03/03 11:43:50;;;;;;;4.05;0.75;;;7.30;96.90;;;;;;5075312;28;20051;-76
2023/03/03 11:46:25;;;;;;;1.95;0.38;;;7.40;96.40;;;;;;5088896;28;20487;-75
2023/03/03 11:49:21;;;;;;;2.38;0.43;;;7.90;99.90;;;;;;5087494;28;20101;-75
2023/03/03 11:52:00;;;;;;;2.50;0.60;;;8.30;90.90;;;;;;5077421;28;20048;-76
2023/03/03 11:54:44;;;;;;;2.42;0.73;;;8.30;82.90;;;;;;5084506;28;20056;-76
2023/03/03 11:57:24;;;;;;;3.00;0.80;;;8.10;83.50;;;;;;5084621;28;20044;-75
2023/03/03 12:00:15;;;;;;;3.65;0.60;;;8.00;79.60;;;;;;5071318;28;20556;-75
2023/03/03 12:02:56;;;;;;;6.40;0.82;;;8.10;82.30;;;;;;5085167;28;20067;-76
2023/03/03 12:05:25;;;;;;;1.70;0.45;;;8.10;77.60;;;;;;5085064;28;20116;-75
2023/03/03 12:07:54;;;;;;;2.03;0.77;;;8.10;82.30;;;;;;5086384;28;20032;-75
2023/03/03 12:10:27;;;;;;;3.30;0.98;;;8.20;90.30;;;;;;5083445;28;20460;-76
2023/03/03 12:13:05;;;;;;;2.83;1.10;;;8.00;85.80;;;;;;5087358;28;20550;-76
2023/03/03 12:15:46;;;;;;;5.53;0.90;;;7.90;86.60;;;;;;5080129;28;20036;-75
2023/03/03 12:18:57;;;;;;;2.70;0.70;;;7.80;81.70;;;;;;5082399;28;20715;-77
2023/03/03 12:22:19;;;;;;;6.00;0.95;;;7.80;82.50;;;;;;5064556;28;20056;-77
2023/03/03 12:24:50;;;;;;;4.72;0.88;;;7.70;74.00;;;;;;5003661;28;20072;-77
2023/03/03 12:27:28;;;;;;;6.00;1.10;;;7.90;73.40;;;;;;5083061;28;20072;-77
2023/03/03 12:30:06;;;;;;;4.43;0.90;;;7.90;75.00;;;;;;5088623;28;20044;-77
2023/03/03 12:32:37;;;;;;;4.03;0.80;;;7.90;71.80;;;;;;5086410;28;20048;-77
2023/03/03 12:35:18;;;;;;;3.63;0.90;;;8.00;71.60;;;;;;5082199;28;20046;-77
2023/03/03 12:37:56;;;;;;;3.88;1.10;;;8.40;73.20;;;;;;5083062;28;20888;-77
2023/03/03 12:40:33;;;;;;;9.23;1.52;;;8.60;72.50;;;;;;5086289;28;20055;-77
2023/03/03 12:43:13;;;;;;;5.07;1.08;;;8.60;75.30;;;;;;5080141;28;20047;-77
2023/03/03 12:45:57;;;;;;;6.35;1.20;;;8.50;75.70;;;;;;5087502;28;20035;-78
2023/03/03 12:48:35;;;;;;;5.90;1.25;;;8.30;82.90;;;;;;5061580;28;20372;-78
2023/03/03 12:51:09;;;;;;;7.50;1.00;;;8.10;84.40;;;;;;5077811;28;20044;-78
2023/03/03 12:54:12;;;;;;;4.63;1.00;;;8.10;86.40;;;;;;5084024;28;20044;-77
2023/03/03 12:57:03;;;;;;;7.93;1.08;;;8.00;85.80;;;;;;5087038;28;20040;-77
2023/03/03 12:59:40;;;;;;;6.90;1.73;;;8.10;90.10;;;;;;5079788;28;20040;-77
2023/03/03 13:02:28;;;;;;;5.95;1.20;;;7.80;82.80;;;;;;5080917;28;20043;-77
2023/03/03 13:05:25;;;;;;;5.30;1.00;;;7.80;78.10;;;;;;5076119;28;20072;-78
2023/03/03 13:07:57;;;;;;;6.40;1.50;;;7.90;80.80;;;;;;5079142;28;20051;-77
2023/03/03 13:10:33;;;;;;;8.10;1.73;;;7.90;73.50;;;;;;5070015;28;20040;-76
2023/03/03 13:13:01;;;;;;;7.82;1.98;;;8.30;79.60;;;;;;5085368;28;20035;-75
2023/03/03 13:15:29;;;;;;;4.88;1.40;;;8.40;70.80;;;;;;5069177;28;20040;-75
2023/03/03 13:18:25;;;;;;;10.55;1.50;;;8.40;68.60;;;;;;5077927;28;20482;-75
2023/03/03 13:21:00;;;;;;;6.45;1.48;;;8.30;68.20;;;;;;5046729;28;20131;-76
2023/03/03 13:23:51;;;;;;;6.72;1.40;;;8.30;75.90;;;;;;5079472;28;20098;-76
2023/03/03 13:26:34;;;;;;;9.13;1.70;;;8.40;82.50;;;;;;5081906;28;20055;-74